sensor_id;sensor_type;location;lat;lon;timestamp;P1;durP1;ratioP1;P2;durP2;ratioP2
41667;SDS011;27356;50.920;5.350;2023-01-28T00:01:09;5.68;;;5.07;;
41667;SDS011;27356;50.920;5.350;2023-01-28T00:03:36;6.40;;;5.60;;
41667;SDS011;27356;50.920;5.350;2023-01-28T00:06:13;7.35;;;5.35;;
41667;SDS011;27356;50.920;5.350;2023-01-28T00:08:39;6.32;;;5.72;;
41667;SDS011;27356;50.920;5.350;2023-01-28T00:11:06;6.10;;;5.43;;
41667;SDS011;27356;50.920;5.350;2023-01-28T00:13:32;8.20;;;5.63;;
41667;SDS011;27356;50.920;5.350;2023-01-28T00:16:03;6.75;;;6.00;;
41667;SDS011;27356;50.920;5.350;2023-01-28T00:18:30;8.88;;;6.05;;
41667;SDS011;27356;50.920;5.350;2023-01-28T00:20:58;7.30;;;5.53;;
41667;SDS011;27356;50.920;5.350;2023-01-28T00:23:25;5.70;;;5.20;;
41667;SDS011;27356;50.920;5.350;2023-01-28T00:25:52;6.60;;;5.88;;
41667;SDS011;27356;50.920;5.350;2023-01-28T00:28:19;6.80;;;5.70;;
41667;SDS011;27356;50.920;5.350;2023-01-28T00:30:46;7.95;;;6.25;;
41667;SDS011;27356;50.920;5.350;2023-01-28T00:33:12;7.28;;;6.45;;
41667;SDS011;27356;50.920;5.350;2023-01-28T00:35:37;9.52;;;6.47;;
41667;SDS011;27356;50.920;5.350;2023-01-28T00:38:03;7.10;;;6.18;;
41667;SDS011;27356;50.920;5.350;2023-01-28T00:40:29;6.82;;;5.93;;
41667;SDS011;27356;50.920;5.350;2023-01-28T00:42:55;9.80;;;7.38;;
41667;SDS011;27356;50.920;5.350;2023-01-28T00:45:21;8.35;;;6.97;;
41667;SDS011;27356;50.920;5.350;2023-01-28T00:47:47;8.32;;;6.70;;
41667;SDS011;27356;50.920;5.350;2023-01-28T00:50:13;7.75;;;6.95;;
41667;SDS011;27356;50.920;5.350;2023-01-28T00:52:39;9.10;;;6.97;;
41667;SDS011;27356;50.920;5.350;2023-01-28T00:55:05;7.53;;;6.72;;
41667;SDS011;27356;50.920;5.350;2023-01-28T00:57:31;8.32;;;6.68;;
41667;SDS011;27356;50.920;5.350;2023-01-28T00:59:58;9.68;;;7.85;;
41667;SDS011;27356;50.920;5.350;2023-01-28T01:02:23;11.07;;;7.50;;
41667;SDS011;27356;50.920;5.350;2023-01-28T01:04:49;10.85;;;9.15;;
41667;SDS011;27356;50.920;5.350;2023-01-28T01:07:29;11.07;;;8.98;;
41667;SDS011;27356;50.920;5.350;2023-01-28T01:10:08;11.15;;;8.43;;
41667;SDS011;27356;50.920;5.350;2023-01-28T01:12:35;12.05;;;9.27;;
41667;SDS011;27356;50.920;5.350;2023-01-28T01:15:01;12.90;;;9.10;;
41667;SDS011;27356;50.920;5.350;2023-01-28T01:17:30;12.50;;;9.07;;
41667;SDS011;27356;50.920;5.350;2023-01-28T01:19:56;11.63;;;8.80;;
41667;SDS011;27356;50.920;5.350;2023-01-28T01:22:22;12.13;;;8.93;;
41667;SDS011;27356;50.920;5.350;2023-01-28T01:24:47;13.98;;;9.68;;
41667;SDS011;27356;50.920;5.350;2023-01-28T01:27:13;13.18;;;10.05;;
41667;SDS011;27356;50.920;5.350;2023-01-28T01:29:39;13.68;;;10.27;;
41667;SDS011;27356;50.920;5.350;2023-01-28T01:32:04;13.40;;;10.27;;
41667;SDS011;27356;50.920;5.350;2023-01-28T01:34:30;15.02;;;10.20;;
41667;SDS011;27356;50.920;5.350;2023-01-28T01:36:56;15.48;;;11.20;;
41667;SDS011;27356;50.920;5.350;2023-01-28T01:39:21;13.38;;;9.88;;
41667;SDS011;27356;50.920;5.350;2023-01-28T01:41:47;13.65;;;9.90;;
41667;SDS011;27356;50.920;5.350;2023-01-28T01:47:18;14.75;;;10.45;;
41667;SDS011;27356;50.920;5.350;2023-01-28T01:49:48;14.93;;;10.95;;
41667;SDS011;27356;50.920;5.350;2023-01-28T01:52:14;15.45;;;11.38;;
41667;SDS011;27356;50.920;5.350;2023-01-28T01:54:43;16.52;;;10.10;;
41667;SDS011;27356;50.920;5.350;2023-01-28T01:57:13;12.57;;;9.65;;
41667;SDS011;27356;50.920;5.350;2023-01-28T01:59:44;14.93;;;10.68;;
41667;SDS011;27356;50.920;5.350;2023-01-28T02:02:10;16.05;;;10.18;;
41667;SDS011;27356;50.920;5.350;2023-01-28T02:04:41;14.82;;;10.68;;
41667;SDS011;27356;50.920;5.350;2023-01-28T02:07:09;13.98;;;10.35;;
41667;SDS011;27356;50.920;5.350;2023-01-28T02:09:37;14.88;;;10.70;;
41667;SDS011;27356;50.920;5.350;2023-01-28T02:14:39;16.70;;;11.00;;
41667;SDS011;27356;50.920;5.350;2023-01-28T02:17:09;15.73;;;10.93;;
41667;SDS011;27356;50.920;5.350;2023-01-28T02:19:41;19.15;;;10.57;;
41667;SDS011;27356;50.920;5.350;2023-01-28T02:22:25;14.93;;;10.45;;
41667;SDS011;27356;50.920;5.350;2023-01-28T02:33:43;14.63;;;10.68;;
41667;SDS011;27356;50.920;5.350;2023-01-28T02:39:08;13.15;;;9.98;;
41667;SDS011;27356;50.920;5.350;2023-01-28T02:41:57;14.70;;;10.43;;
41667;SDS011;27356;50.920;5.350;2023-01-28T02:44:35;14.27;;;10.65;;
41667;SDS011;27356;50.920;5.350;2023-01-28T02:47:01;16.08;;;11.25;;
41667;SDS011;27356;50.920;5.350;2023-01-28T02:55:09;16.30;;;11.02;;
41667;SDS011;27356;50.920;5.350;2023-01-28T03:06:01;14.38;;;10.43;;
41667;SDS011;27356;50.920;5.350;2023-01-28T03:08:39;15.05;;;9.85;;
41667;SDS011;27356;50.920;5.350;2023-01-28T03:11:45;15.70;;;10.82;;
41667;SDS011;27356;50.920;5.350;2023-01-28T03:14:32;14.30;;;10.35;;
41667;SDS011;27356;50.920;5.350;2023-01-28T03:20:43;16.38;;;10.88;;
41667;SDS011;27356;50.920;5.350;2023-01-28T03:23:36;15.70;;;10.68;;
41667;SDS011;27356;50.920;5.350;2023-01-28T03:26:45;16.30;;;11.20;;
41667;SDS011;27356;50.920;5.350;2023-01-28T03:29:36;14.43;;;10.57;;
41667;SDS011;27356;50.920;5.350;2023-01-28T03:32:23;16.70;;;11.20;;
41667;SDS011;27356;50.920;5.350;2023-01-28T03:35:09;14.85;;;10.45;;
41667;SDS011;27356;50.920;5.350;2023-01-28T03:37:55;17.75;;;11.68;;
41667;SDS011;27356;50.920;5.350;2023-01-28T03:40:24;17.58;;;11.52;;
41667;SDS011;27356;50.920;5.350;2023-01-28T03:42:51;15.02;;;11.27;;
41667;SDS011;27356;50.920;5.350;2023-01-28T03:45:18;16.83;;;10.50;;
41667;SDS011;27356;50.920;5.350;2023-01-28T03:47:45;14.55;;;10.45;;
41667;SDS011;27356;50.920;5.350;2023-01-28T03:50:11;17.50;;;11.18;;
41667;SDS011;27356;50.920;5.350;2023-01-28T03:52:37;16.52;;;11.38;;
41667;SDS011;27356;50.920;5.350;2023-01-28T03:55:02;16.35;;;11.30;;
41667;SDS011;27356;50.920;5.350;2023-01-28T03:57:37;19.75;;;11.60;;
41667;SDS011;27356;50.920;5.350;2023-01-28T04:00:03;14.77;;;10.88;;
41667;SDS011;27356;50.920;5.350;2023-01-28T04:02:29;16.50;;;11.38;;
41667;SDS011;27356;50.920;5.350;2023-01-28T04:04:55;15.05;;;10.85;;
41667;SDS011;27356;50.920;5.350;2023-01-28T04:07:22;17.13;;;11.35;;
41667;SDS011;27356;50.920;5.350;2023-01-28T04:09:48;17.00;;;10.80;;
41667;SDS011;27356;50.920;5.350;2023-01-28T04:12:14;15.95;;;10.80;;
41667;SDS011;27356;50.920;5.350;2023-01-28T04:14:40;14.85;;;10.75;;
41667;SDS011;27356;50.920;5.350;2023-01-28T04:17:06;16.38;;;10.88;;
41667;SDS011;27356;50.920;5.350;2023-01-28T04:19:34;14.55;;;10.32;;
41667;SDS011;27356;50.920;5.350;2023-01-28T04:22:02;17.38;;;11.43;;
41667;SDS011;27356;50.920;5.350;2023-01-28T04:24:32;18.75;;;11.45;;
41667;SDS011;27356;50.920;5.350;2023-01-28T04:26:58;17.33;;;12.15;;
41667;SDS011;27356;50.920;5.350;2023-01-28T04:29:23;20.77;;;11.98;;
41667;SDS011;27356;50.920;5.350;2023-01-28T04:31:49;15.38;;;10.65;;
41667;SDS011;27356;50.920;5.350;2023-01-28T04:34:15;17.65;;;12.00;;
41667;SDS011;27356;50.920;5.350;2023-01-28T04:36:41;18.00;;;11.20;;
41667;SDS011;27356;50.920;5.350;2023-01-28T04:39:07;16.33;;;10.95;;
41667;SDS011;27356;50.920;5.350;2023-01-28T04:41:32;16.48;;;11.40;;
41667;SDS011;27356;50.920;5.350;2023-01-28T04:43:58;19.23;;;10.75;;
41667;SDS011;27356;50.920;5.350;2023-01-28T04:46:24;20.55;;;11.98;;
41667;SDS011;27356;50.920;5.350;2023-01-28T04:48:49;15.80;;;11.05;;
41667;SDS011;27356;50.920;5.350;2023-01-28T04:51:15;15.88;;;11.25;;
41667;SDS011;27356;50.920;5.350;2023-01-28T04:53:41;17.02;;;11.43;;
41667;SDS011;27356;50.920;5.350;2023-01-28T04:56:07;17.40;;;10.75;;
41667;SDS011;27356;50.920;5.350;2023-01-28T04:58:32;15.50;;;10.70;;
41667;SDS011;27356;50.920;5.350;2023-01-28T05:00:58;16.67;;;11.05;;
41667;SDS011;27356;50.920;5.350;2023-01-28T05:03:24;17.52;;;11.05;;
41667;SDS011;27356;50.920;5.350;2023-01-28T05:05:50;15.02;;;11.05;;
41667;SDS011;27356;50.920;5.350;2023-01-28T05:08:16;18.60;;;11.25;;
41667;SDS011;27356;50.920;5.350;2023-01-28T05:10:42;18.33;;;10.82;;
41667;SDS011;27356;50.920;5.350;2023-01-28T05:13:08;17.50;;;11.40;;
41667;SDS011;27356;50.920;5.350;2023-01-28T05:15:34;17.88;;;10.63;;
41667;SDS011;27356;50.920;5.350;2023-01-28T05:17:59;17.40;;;10.82;;
41667;SDS011;27356;50.920;5.350;2023-01-28T05:20:25;14.25;;;10.57;;
41667;SDS011;27356;50.920;5.350;2023-01-28T05:22:51;14.98;;;10.55;;
41667;SDS011;27356;50.920;5.350;2023-01-28T05:25:17;16.67;;;11.88;;
41667;SDS011;27356;50.920;5.350;2023-01-28T05:27:43;16.05;;;10.82;;
41667;SDS011;27356;50.920;5.350;2023-01-28T05:30:13;14.70;;;10.52;;
41667;SDS011;27356;50.920;5.350;2023-01-28T05:32:39;15.25;;;9.95;;
41667;SDS011;27356;50.920;5.350;2023-01-28T05:35:05;15.70;;;11.02;;
41667;SDS011;27356;50.920;5.350;2023-01-28T05:37:31;18.55;;;11.15;;
41667;SDS011;27356;50.920;5.350;2023-01-28T05:39:56;15.45;;;11.02;;
41667;SDS011;27356;50.920;5.350;2023-01-28T05:42:22;15.07;;;9.82;;
41667;SDS011;27356;50.920;5.350;2023-01-28T05:44:47;14.55;;;10.23;;
41667;SDS011;27356;50.920;5.350;2023-01-28T05:47:13;15.45;;;10.48;;
41667;SDS011;27356;50.920;5.350;2023-01-28T05:49:39;16.95;;;9.77;;
41667;SDS011;27356;50.920;5.350;2023-01-28T05:52:04;14.98;;;10.73;;
41667;SDS011;27356;50.920;5.350;2023-01-28T05:54:30;14.70;;;10.02;;
41667;SDS011;27356;50.920;5.350;2023-01-28T05:56:56;14.40;;;10.13;;
41667;SDS011;27356;50.920;5.350;2023-01-28T05:59:21;15.35;;;10.45;;
41667;SDS011;27356;50.920;5.350;2023-01-28T06:01:47;14.18;;;10.25;;
41667;SDS011;27356;50.920;5.350;2023-01-28T06:04:13;15.65;;;10.63;;
41667;SDS011;27356;50.920;5.350;2023-01-28T06:06:39;15.15;;;10.13;;
41667;SDS011;27356;50.920;5.350;2023-01-28T06:09:04;16.95;;;11.25;;
41667;SDS011;27356;50.920;5.350;2023-01-28T06:11:30;15.82;;;10.10;;
41667;SDS011;27356;50.920;5.350;2023-01-28T06:13:56;15.90;;;10.48;;
41667;SDS011;27356;50.920;5.350;2023-01-28T06:16:21;15.43;;;10.30;;
41667;SDS011;27356;50.920;5.350;2023-01-28T06:18:47;19.38;;;12.43;;
41667;SDS011;27356;50.920;5.350;2023-01-28T06:21:13;16.38;;;11.23;;
41667;SDS011;27356;50.920;5.350;2023-01-28T06:23:38;15.38;;;10.38;;
41667;SDS011;27356;50.920;5.350;2023-01-28T06:26:04;16.63;;;11.27;;
41667;SDS011;27356;50.920;5.350;2023-01-28T06:28:30;16.45;;;11.15;;
41667;SDS011;27356;50.920;5.350;2023-01-28T06:30:56;15.27;;;9.75;;
41667;SDS011;27356;50.920;5.350;2023-01-28T06:33:21;19.20;;;11.60;;
41667;SDS011;27356;50.920;5.350;2023-01-28T06:35:48;16.63;;;10.82;;
41667;SDS011;27356;50.920;5.350;2023-01-28T06:38:13;18.42;;;11.43;;
41667;SDS011;27356;50.920;5.350;2023-01-28T06:40:39;15.57;;;10.52;;
41667;SDS011;27356;50.920;5.350;2023-01-28T06:43:05;20.23;;;11.68;;
41667;SDS011;27356;50.920;5.350;2023-01-28T06:45:31;18.88;;;10.93;;
41667;SDS011;27356;50.920;5.350;2023-01-28T06:47:57;17.35;;;11.40;;
41667;SDS011;27356;50.920;5.350;2023-01-28T06:50:23;16.77;;;11.10;;
41667;SDS011;27356;50.920;5.350;2023-01-28T06:52:49;17.13;;;11.02;;
41667;SDS011;27356;50.920;5.350;2023-01-28T06:55:14;17.25;;;10.88;;
41667;SDS011;27356;50.920;5.350;2023-01-28T06:57:40;16.48;;;11.00;;
41667;SDS011;27356;50.920;5.350;2023-01-28T07:00:07;16.63;;;10.88;;
41667;SDS011;27356;50.920;5.350;2023-01-28T07:02:35;15.95;;;10.20;;
41667;SDS011;27356;50.920;5.350;2023-01-28T07:05:04;21.10;;;11.82;;
41667;SDS011;27356;50.920;5.350;2023-01-28T07:07:30;17.55;;;11.15;;
41667;SDS011;27356;50.920;5.350;2023-01-28T07:09:56;17.98;;;11.57;;
41667;SDS011;27356;50.920;5.350;2023-01-28T07:12:22;19.20;;;11.27;;
41667;SDS011;27356;50.920;5.350;2023-01-28T07:14:48;17.52;;;10.70;;
41667;SDS011;27356;50.920;5.350;2023-01-28T07:17:13;19.30;;;10.80;;
41667;SDS011;27356;50.920;5.350;2023-01-28T07:19:39;18.58;;;11.50;;
41667;SDS011;27356;50.920;5.350;2023-01-28T07:22:05;20.30;;;12.10;;
41667;SDS011;27356;50.920;5.350;2023-01-28T07:24:31;23.45;;;12.38;;
41667;SDS011;27356;50.920;5.350;2023-01-28T07:26:57;17.05;;;11.32;;
41667;SDS011;27356;50.920;5.350;2023-01-28T07:29:22;18.85;;;11.82;;
41667;SDS011;27356;50.920;5.350;2023-01-28T07:31:48;21.52;;;12.98;;
41667;SDS011;27356;50.920;5.350;2023-01-28T07:34:14;19.98;;;11.55;;
41667;SDS011;27356;50.920;5.350;2023-01-28T07:36:40;18.90;;;11.57;;
41667;SDS011;27356;50.920;5.350;2023-01-28T07:39:05;18.70;;;11.63;;
41667;SDS011;27356;50.920;5.350;2023-01-28T07:41:34;19.50;;;10.73;;
41667;SDS011;27356;50.920;5.350;2023-01-28T07:43:59;19.30;;;11.30;;
41667;SDS011;27356;50.920;5.350;2023-01-28T07:46:25;18.40;;;11.45;;
41667;SDS011;27356;50.920;5.350;2023-01-28T07:48:52;19.38;;;11.68;;
41667;SDS011;27356;50.920;5.350;2023-01-28T07:51:17;18.33;;;10.68;;
41667;SDS011;27356;50.920;5.350;2023-01-28T07:53:43;18.48;;;11.75;;
41667;SDS011;27356;50.920;5.350;2023-01-28T07:56:09;19.90;;;12.52;;
41667;SDS011;27356;50.920;5.350;2023-01-28T07:58:34;20.98;;;12.05;;
41667;SDS011;27356;50.920;5.350;2023-01-28T08:01:00;18.00;;;11.48;;
41667;SDS011;27356;50.920;5.350;2023-01-28T08:03:27;19.75;;;11.45;;
41667;SDS011;27356;50.920;5.350;2023-01-28T08:05:53;18.63;;;12.32;;
41667;SDS011;27356;50.920;5.350;2023-01-28T08:08:20;18.00;;;11.68;;
41667;SDS011;27356;50.920;5.350;2023-01-28T08:10:46;20.27;;;12.65;;
41667;SDS011;27356;50.920;5.350;2023-01-28T08:13:13;24.73;;;13.02;;
41667;SDS011;27356;50.920;5.350;2023-01-28T08:15:39;18.95;;;11.40;;
41667;SDS011;27356;50.920;5.350;2023-01-28T08:18:06;17.73;;;11.50;;
41667;SDS011;27356;50.920;5.350;2023-01-28T08:20:33;20.23;;;12.43;;
41667;SDS011;27356;50.920;5.350;2023-01-28T08:25:41;18.88;;;12.10;;
41667;SDS011;27356;50.920;5.350;2023-01-28T08:28:07;19.33;;;12.25;;
41667;SDS011;27356;50.920;5.350;2023-01-28T08:30:34;22.65;;;12.63;;
41667;SDS011;27356;50.920;5.350;2023-01-28T08:33:03;20.90;;;12.80;;
41667;SDS011;27356;50.920;5.350;2023-01-28T08:35:29;18.02;;;12.15;;
41667;SDS011;27356;50.920;5.350;2023-01-28T08:37:58;20.73;;;12.00;;
41667;SDS011;27356;50.920;5.350;2023-01-28T08:40:25;19.98;;;13.07;;
41667;SDS011;27356;50.920;5.350;2023-01-28T08:42:51;21.45;;;12.57;;
41667;SDS011;27356;50.920;5.350;2023-01-28T08:45:18;19.00;;;12.52;;
41667;SDS011;27356;50.920;5.350;2023-01-28T08:47:53;20.77;;;12.60;;
41667;SDS011;27356;50.920;5.350;2023-01-28T08:50:20;19.25;;;11.48;;
41667;SDS011;27356;50.920;5.350;2023-01-28T08:52:48;19.63;;;11.95;;
41667;SDS011;27356;50.920;5.350;2023-01-28T08:55:18;18.90;;;11.88;;
41667;SDS011;27356;50.920;5.350;2023-01-28T08:57:44;20.05;;;12.50;;
41667;SDS011;27356;50.920;5.350;2023-01-28T09:00:10;22.05;;;11.85;;
41667;SDS011;27356;50.920;5.350;2023-01-28T09:02:36;20.95;;;12.63;;
41667;SDS011;27356;50.920;5.350;2023-01-28T09:05:03;21.75;;;12.68;;
41667;SDS011;27356;50.920;5.350;2023-01-28T09:07:29;20.58;;;12.98;;
41667;SDS011;27356;50.920;5.350;2023-01-28T09:09:55;19.92;;;12.60;;
41667;SDS011;27356;50.920;5.350;2023-01-28T09:12:21;18.90;;;12.10;;
41667;SDS011;27356;50.920;5.350;2023-01-28T09:14:47;21.80;;;12.48;;
41667;SDS011;27356;50.920;5.350;2023-01-28T09:17:13;19.95;;;11.90;;
41667;SDS011;27356;50.920;5.350;2023-01-28T09:19:38;21.27;;;13.27;;
41667;SDS011;27356;50.920;5.350;2023-01-28T09:22:04;19.48;;;11.90;;
41667;SDS011;27356;50.920;5.350;2023-01-28T09:24:30;18.45;;;11.10;;
41667;SDS011;27356;50.920;5.350;2023-01-28T09:26:56;16.30;;;10.73;;
41667;SDS011;27356;50.920;5.350;2023-01-28T09:29:22;16.05;;;10.82;;
41667;SDS011;27356;50.920;5.350;2023-01-28T09:31:47;19.35;;;12.13;;
41667;SDS011;27356;50.920;5.350;2023-01-28T09:34:13;16.42;;;10.75;;
41667;SDS011;27356;50.920;5.350;2023-01-28T09:36:38;17.15;;;10.95;;
41667;SDS011;27356;50.920;5.350;2023-01-28T09:39:04;20.48;;;11.85;;
41667;SDS011;27356;50.920;5.350;2023-01-28T09:44:04;15.73;;;10.55;;
41667;SDS011;27356;50.920;5.350;2023-01-28T09:46:35;19.02;;;11.55;;
41667;SDS011;27356;50.920;5.350;2023-01-28T09:49:04;15.43;;;10.80;;
41667;SDS011;27356;50.920;5.350;2023-01-28T09:51:44;16.23;;;11.50;;
41667;SDS011;27356;50.920;5.350;2023-01-28T09:54:18;15.98;;;10.55;;
41667;SDS011;27356;50.920;5.350;2023-01-28T09:56:51;18.75;;;11.38;;
41667;SDS011;27356;50.920;5.350;2023-01-28T09:59:23;14.48;;;10.30;;
41667;SDS011;27356;50.920;5.350;2023-01-28T10:01:53;14.80;;;9.80;;
41667;SDS011;27356;50.920;5.350;2023-01-28T10:07:13;14.50;;;10.38;;
41667;SDS011;27356;50.920;5.350;2023-01-28T10:09:57;14.57;;;8.88;;
41667;SDS011;27356;50.920;5.350;2023-01-28T10:18:12;9.38;;;7.00;;
41667;SDS011;27356;50.920;5.350;2023-01-28T10:23:36;10.65;;;7.53;;
41667;SDS011;27356;50.920;5.350;2023-01-28T10:26:23;11.63;;;8.25;;
41667;SDS011;27356;50.920;5.350;2023-01-28T10:28:56;11.02;;;7.70;;
41667;SDS011;27356;50.920;5.350;2023-01-28T10:31:27;10.25;;;7.80;;
41667;SDS011;27356;50.920;5.350;2023-01-28T10:33:57;12.18;;;7.82;;
41667;SDS011;27356;50.920;5.350;2023-01-28T10:36:23;9.43;;;7.43;;
41667;SDS011;27356;50.920;5.350;2023-01-28T10:38:49;11.00;;;8.55;;
41667;SDS011;27356;50.920;5.350;2023-01-28T10:41:16;11.20;;;8.52;;
41667;SDS011;27356;50.920;5.350;2023-01-28T10:43:45;11.43;;;8.43;;
41667;SDS011;27356;50.920;5.350;2023-01-28T10:46:17;10.52;;;8.50;;
41667;SDS011;27356;50.920;5.350;2023-01-28T10:49:02;13.43;;;9.70;;
41667;SDS011;27356;50.920;5.350;2023-01-28T10:51:37;10.77;;;7.80;;
41667;SDS011;27356;50.920;5.350;2023-01-28T10:56:47;14.60;;;8.90;;
41667;SDS011;27356;50.920;5.350;2023-01-28T10:59:24;10.70;;;8.40;;
41667;SDS011;27356;50.920;5.350;2023-01-28T11:02:03;10.23;;;7.72;;
41667;SDS011;27356;50.920;5.350;2023-01-28T11:05:21;11.55;;;8.88;;
41667;SDS011;27356;50.920;5.350;2023-01-28T11:07:47;11.40;;;8.73;;
41667;SDS011;27356;50.920;5.350;2023-01-28T11:10:24;12.00;;;8.77;;
41667;SDS011;27356;50.920;5.350;2023-01-28T11:12:54;11.85;;;8.88;;
41667;SDS011;27356;50.920;5.350;2023-01-28T11:15:21;15.05;;;9.10;;
41667;SDS011;27356;50.920;5.350;2023-01-28T11:17:47;11.50;;;8.80;;
41667;SDS011;27356;50.920;5.350;2023-01-28T11:20:20;10.85;;;8.25;;
41667;SDS011;27356;50.920;5.350;2023-01-28T11:22:48;12.27;;;8.00;;
41667;SDS011;27356;50.920;5.350;2023-01-28T11:27:46;12.75;;;9.27;;
41667;SDS011;27356;50.920;5.350;2023-01-28T11:32:54;17.42;;;9.38;;
41667;SDS011;27356;50.920;5.350;2023-01-28T11:35:27;11.07;;;8.45;;
41667;SDS011;27356;50.920;5.350;2023-01-28T11:37:55;11.88;;;8.98;;
41667;SDS011;27356;50.920;5.350;2023-01-28T11:40:27;11.73;;;9.00;;
41667;SDS011;27356;50.920;5.350;2023-01-28T11:42:53;12.23;;;9.20;;
41667;SDS011;27356;50.920;5.350;2023-01-28T11:45:28;11.77;;;8.95;;
41667;SDS011;27356;50.920;5.350;2023-01-28T11:50:56;11.88;;;8.75;;
41667;SDS011;27356;50.920;5.350;2023-01-28T11:56:30;12.27;;;8.85;;
41667;SDS011;27356;50.920;5.350;2023-01-28T12:02:21;14.20;;;9.50;;
41667;SDS011;27356;50.920;5.350;2023-01-28T12:05:32;14.18;;;9.13;;
41667;SDS011;27356;50.920;5.350;2023-01-28T12:08:07;12.93;;;9.00;;
41667;SDS011;27356;50.920;5.350;2023-01-28T12:11:07;13.43;;;9.20;;
41667;SDS011;27356;50.920;5.350;2023-01-28T12:14:12;13.40;;;9.13;;
41667;SDS011;27356;50.920;5.350;2023-01-28T12:16:43;12.23;;;8.60;;
41667;SDS011;27356;50.920;5.350;2023-01-28T12:30:23;14.45;;;9.98;;
41667;SDS011;27356;50.920;5.350;2023-01-28T12:33:27;14.90;;;9.73;;
41667;SDS011;27356;50.920;5.350;2023-01-28T12:36:10;14.38;;;9.88;;
41667;SDS011;27356;50.920;5.350;2023-01-28T12:38:49;14.63;;;10.20;;
41667;SDS011;27356;50.920;5.350;2023-01-28T12:41:17;13.20;;;8.63;;
41667;SDS011;27356;50.920;5.350;2023-01-28T12:43:47;13.70;;;9.82;;
41667;SDS011;27356;50.920;5.350;2023-01-28T12:52:05;13.32;;;9.23;;
41667;SDS011;27356;50.920;5.350;2023-01-28T12:57:39;12.77;;;9.05;;
41667;SDS011;27356;50.920;5.350;2023-01-28T13:00:28;11.68;;;8.32;;
41667;SDS011;27356;50.920;5.350;2023-01-28T13:03:07;11.50;;;9.02;;
41667;SDS011;27356;50.920;5.350;2023-01-28T13:06:11;11.88;;;8.10;;
41667;SDS011;27356;50.920;5.350;2023-01-28T13:08:43;11.88;;;9.05;;
41667;SDS011;27356;50.920;5.350;2023-01-28T13:11:11;12.30;;;8.85;;
41667;SDS011;27356;50.920;5.350;2023-01-28T13:13:41;11.88;;;9.32;;
41667;SDS011;27356;50.920;5.350;2023-01-28T13:16:09;11.70;;;9.38;;
41667;SDS011;27356;50.920;5.350;2023-01-28T13:21:04;10.27;;;8.55;;
41667;SDS011;27356;50.920;5.350;2023-01-28T13:28:48;11.95;;;8.60;;
41667;SDS011;27356;50.920;5.350;2023-01-28T13:31:17;14.70;;;10.85;;
41667;SDS011;27356;50.920;5.350;2023-01-28T13:33:46;14.73;;;10.10;;
41667;SDS011;27356;50.920;5.350;2023-01-28T13:39:21;13.52;;;9.88;;
41667;SDS011;27356;50.920;5.350;2023-01-28T13:41:50;14.47;;;9.97;;
41667;SDS011;27356;50.920;5.350;2023-01-28T13:44:31;13.63;;;9.93;;
41667;SDS011;27356;50.920;5.350;2023-01-28T13:47:11;13.50;;;9.90;;
41667;SDS011;27356;50.920;5.350;2023-01-28T13:49:58;12.77;;;9.48;;
41667;SDS011;27356;50.920;5.350;2023-01-28T13:52:28;13.32;;;10.13;;
41667;SDS011;27356;50.920;5.350;2023-01-28T13:57:50;15.00;;;10.30;;
41667;SDS011;27356;50.920;5.350;2023-01-28T14:12:05;13.10;;;9.15;;
41667;SDS011;27356;50.920;5.350;2023-01-28T14:22:44;18.27;;;10.50;;
41667;SDS011;27356;50.920;5.350;2023-01-28T14:25:11;12.30;;;9.15;;
41667;SDS011;27356;50.920;5.350;2023-01-28T14:27:42;13.80;;;10.35;;
41667;SDS011;27356;50.920;5.350;2023-01-28T14:30:18;13.43;;;9.23;;
41667;SDS011;27356;50.920;5.350;2023-01-28T14:32:49;13.25;;;9.93;;
41667;SDS011;27356;50.920;5.350;2023-01-28T14:35:32;12.38;;;9.30;;
41667;SDS011;27356;50.920;5.350;2023-01-28T14:38:05;13.73;;;10.27;;
41667;SDS011;27356;50.920;5.350;2023-01-28T14:40:33;14.55;;;9.63;;
41667;SDS011;27356;50.920;5.350;2023-01-28T14:43:02;12.80;;;9.75;;
41667;SDS011;27356;50.920;5.350;2023-01-28T14:48:25;12.13;;;10.05;;
41667;SDS011;27356;50.920;5.350;2023-01-28T15:01:42;14.57;;;10.55;;
41667;SDS011;27356;50.920;5.350;2023-01-28T15:06:47;14.88;;;10.20;;
41667;SDS011;27356;50.920;5.350;2023-01-28T15:09:13;16.10;;;9.60;;
41667;SDS011;27356;50.920;5.350;2023-01-28T15:11:39;15.23;;;10.45;;
41667;SDS011;27356;50.920;5.350;2023-01-28T15:14:15;15.95;;;10.48;;
41667;SDS011;27356;50.920;5.350;2023-01-28T15:16:52;15.35;;;10.05;;
41667;SDS011;27356;50.920;5.350;2023-01-28T15:19:21;18.25;;;10.80;;
41667;SDS011;27356;50.920;5.350;2023-01-28T15:22:02;14.18;;;9.98;;
41667;SDS011;27356;50.920;5.350;2023-01-28T15:24:34;13.23;;;9.98;;
41667;SDS011;27356;50.920;5.350;2023-01-28T15:27:00;16.05;;;10.82;;
41667;SDS011;27356;50.920;5.350;2023-01-28T15:29:30;16.65;;;11.30;;
41667;SDS011;27356;50.920;5.350;2023-01-28T15:31:59;16.02;;;10.57;;
41667;SDS011;27356;50.920;5.350;2023-01-28T15:34:25;14.57;;;10.25;;
41667;SDS011;27356;50.920;5.350;2023-01-28T15:36:54;20.90;;;10.70;;
41667;SDS011;27356;50.920;5.350;2023-01-28T15:39:22;16.88;;;11.18;;
41667;SDS011;27356;50.920;5.350;2023-01-28T15:44:28;15.82;;;10.35;;
41667;SDS011;27356;50.920;5.350;2023-01-28T15:47:00;16.15;;;10.70;;
41667;SDS011;27356;50.920;5.350;2023-01-28T15:49:36;16.05;;;10.07;;
41667;SDS011;27356;50.920;5.350;2023-01-28T15:52:07;18.15;;;10.95;;
41667;SDS011;27356;50.920;5.350;2023-01-28T15:54:36;15.38;;;10.80;;
41667;SDS011;27356;50.920;5.350;2023-01-28T15:57:08;16.10;;;10.65;;
41667;SDS011;27356;50.920;5.350;2023-01-28T15:59:40;16.05;;;10.90;;
41667;SDS011;27356;50.920;5.350;2023-01-28T16:02:18;18.58;;;11.30;;
41667;SDS011;27356;50.920;5.350;2023-01-28T16:04:58;22.55;;;12.30;;
41667;SDS011;27356;50.920;5.350;2023-01-28T16:07:29;17.75;;;11.63;;
41667;SDS011;27356;50.920;5.350;2023-01-28T16:09:57;19.42;;;11.32;;
41667;SDS011;27356;50.920;5.350;2023-01-28T16:12:25;15.65;;;10.75;;
41667;SDS011;27356;50.920;5.350;2023-01-28T16:14:55;17.40;;;11.25;;
41667;SDS011;27356;50.920;5.350;2023-01-28T16:20:34;18.17;;;10.50;;
41667;SDS011;27356;50.920;5.350;2023-01-28T16:22:45;15.95;;;10.98;;
41667;SDS011;27356;50.920;5.350;2023-01-28T16:27:51;16.70;;;10.75;;
41667;SDS011;27356;50.920;5.350;2023-01-28T16:30:17;16.85;;;11.07;;
41667;SDS011;27356;50.920;5.350;2023-01-28T16:32:43;16.77;;;11.50;;
41667;SDS011;27356;50.920;5.350;2023-01-28T16:35:13;18.27;;;11.52;;
41667;SDS011;27356;50.920;5.350;2023-01-28T16:37:41;19.17;;;11.95;;
41667;SDS011;27356;50.920;5.350;2023-01-28T16:40:08;17.05;;;10.63;;
41667;SDS011;27356;50.920;5.350;2023-01-28T16:42:35;18.55;;;12.52;;
41667;SDS011;27356;50.920;5.350;2023-01-28T16:45:01;19.52;;;12.02;;
41667;SDS011;27356;50.920;5.350;2023-01-28T16:47:27;18.33;;;11.27;;
41667;SDS011;27356;50.920;5.350;2023-01-28T16:49:53;18.58;;;11.88;;
41667;SDS011;27356;50.920;5.350;2023-01-28T16:52:18;18.95;;;12.07;;
41667;SDS011;27356;50.920;5.350;2023-01-28T16:54:46;28.70;;;14.40;;
41667;SDS011;27356;50.920;5.350;2023-01-28T16:57:13;21.20;;;12.27;;
41667;SDS011;27356;50.920;5.350;2023-01-28T16:59:43;30.38;;;15.57;;
41667;SDS011;27356;50.920;5.350;2023-01-28T17:02:12;24.55;;;13.55;;
41667;SDS011;27356;50.920;5.350;2023-01-28T17:04:40;30.40;;;16.10;;
41667;SDS011;27356;50.920;5.350;2023-01-28T17:07:05;43.63;;;19.90;;